Time;durP1;ratioP1;P1;durP2;ratioP2;P2;SDS_P1;SDS_P2;PMS_P1;PMS_P2;Temp;Humidity;BMP_temperature;BMP_pressure;BME280_temperature;BME280_humidity;BME280_pressure;Samples;Min_cycle;Max_cycle;Signal;HPM_P1;HPM_P2
2023/07/10 00:01:44;;;;;;;0.47;0.47;;;;;;;22.96;72.39;99739.78;5070870;28;20200;-63
2023/07/10 00:04:17;;;;;;;0.70;0.70;;;;;;;22.96;72.57;99735.41;5071043;28;20200;-63
2023/07/10 00:06:44;;;;;;;0.47;0.47;;;;;;;22.99;72.27;99729.94;5071229;28;20203;-63
2023/07/10 00:09:11;;;;;;;0.70;0.50;;;;;;;22.98;72.53;99736.09;5070839;28;20207;-63
2023/07/10 00:11:38;;;;;;;0.50;0.50;;;;;;;23.02;72.54;99741.94;5071126;28;20259;-63
2023/07/10 00:14:07;;;;;;;0.50;0.50;;;;;;;23.00;71.80;99736.81;5069944;28;20204;-63
2023/07/10 00:16:34;;;;;;;0.60;0.60;;;;;;;22.95;71.88;99741.56;5070976;28;20298;-63
2023/07/10 00:19:02;;;;;;;0.50;0.50;;;;;;;22.85;71.84;99724.91;5070980;28;20196;-63
2023/07/10 00:21:30;;;;;;;0.67;0.67;;;;;;;22.87;72.37;99741.31;5070580;28;20204;-63
2023/07/10 00:23:57;;;;;;;0.57;0.57;;;;;;;22.81;72.76;99740.97;5070959;28;20574;-63
2023/07/10 00:26:26;;;;;;;0.57;0.57;;;;;;;22.76;72.82;99741.28;5070694;28;20664;-63
2023/07/10 00:28:54;;;;;;;0.60;0.60;;;;;;;22.73;72.82;99744.13;5070774;28;20219;-63
2023/07/10 00:31:21;;;;;;;0.47;0.47;;;;;;;22.61;73.50;99734.56;5069525;28;20224;-63
2023/07/10 00:33:48;;;;;;;0.43;0.43;;;;;;;22.36;74.47;99734.69;5070623;28;20571;-63
2023/07/10 00:36:29;;;;;;;1.17;0.60;;;;;;;22.28;75.57;99734.44;5070458;28;20196;-63
2023/07/10 00:38:57;;;;;;;1.00;0.87;;;;;;;22.19;75.76;99737.72;5070561;28;20683;-63
2023/07/10 00:41:27;;;;;;;0.90;0.90;;;;;;;22.00;76.47;99722.53;5070373;28;20659;-63
2023/07/10 00:43:58;;;;;;;0.83;0.83;;;;;;;22.00;77.00;99737.38;5070441;28;20193;-63
2023/07/10 00:46:31;;;;;;;0.40;0.40;;;;;;;21.89;77.64;99736.34;5070037;28;20204;-63
2023/07/10 00:49:03;;;;;;;0.70;0.70;;;;;;;21.85;77.88;99734.88;5070557;28;20207;-63
2023/07/10 00:51:37;;;;;;;1.27;1.23;;;;;;;21.80;78.13;99734.38;5070049;28;20246;-63
2023/07/10 00:54:05;;;;;;;0.90;0.90;;;;;;;21.75;78.05;99726.03;5070132;28;20199;-63
2023/07/10 00:56:39;;;;;;;0.70;0.70;;;;;;;21.79;78.38;99727.47;5068587;28;20664;-63
2023/07/10 00:59:22;;;;;;;0.50;0.50;;;;;;;21.83;78.28;99726.31;5068922;28;20199;-63
2023/07/10 01:02:21;;;;;;;0.60;0.60;;;;;;;21.63;77.90;99703.41;5070373;28;20191;-63
2023/07/10 01:04:53;;;;;;;0.60;0.60;;;;;;;21.73;78.10;99730.53;5068904;28;20203;-63
2023/07/10 01:07:22;;;;;;;0.57;0.57;;;;;;;21.76;78.37;99734.69;5069749;28;20242;-63
2023/07/10 01:09:57;;;;;;;0.47;0.47;;;;;;;21.66;78.67;99710.19;5069848;28;20196;-63
2023/07/10 01:12:23;;;;;;;1.60;0.70;;;;;;;21.72;78.20;99722.78;5070392;28;20215;-63
2023/07/10 01:14:50;;;;;;;0.67;0.67;;;;;;;21.73;78.52;99720.09;5070253;28;20199;-63
2023/07/10 01:17:17;;;;;;;0.60;0.60;;;;;;;21.75;78.34;99712.13;5070206;28;20671;-63
2023/07/10 01:19:45;;;;;;;0.73;0.73;;;;;;;21.78;78.01;99710.13;5070011;28;20211;-63
2023/07/10 01:22:15;;;;;;;0.50;0.50;;;;;;;21.82;77.76;99711.59;5069687;28;20297;-63
2023/07/10 01:24:52;;;;;;;0.43;0.43;;;;;;;21.89;77.13;99720.69;5070001;28;20579;-63
2023/07/10 01:27:20;;;;;;;0.40;0.40;;;;;;;21.85;76.82;99719.22;5070113;28;20207;-61
2023/07/10 01:29:52;;;;;;;0.67;0.67;;;;;;;21.87;77.48;99727.75;5070119;28;20227;-61
2023/07/10 01:32:22;;;;;;;0.50;0.50;;;;;;;21.87;76.86;99732.16;5068695;28;20215;-62
2023/07/10 01:34:53;;;;;;;0.80;0.80;;;;;;;21.70;77.08;99715.09;5070898;28;20694;-61
2023/07/10 01:37:21;;;;;;;0.83;0.53;;;;;;;21.80;76.80;99723.94;5070220;28;20192;-61
2023/07/10 01:39:51;;;;;;;0.90;0.90;;;;;;;21.77;76.82;99715.47;5070452;28;20671;-62
2023/07/10 01:42:18;;;;;;;0.77;0.77;;;;;;;21.83;76.51;99734.16;5069836;28;20247;-61
2023/07/10 01:44:47;;;;;;;1.20;0.90;;;;;;;21.79;76.77;99734.47;5070429;28;20214;-61
2023/07/10 01:47:15;;;;;;;0.73;0.40;;;;;;;21.77;76.98;99737.19;5069971;28;20209;-62
2023/07/10 01:49:45;;;;;;;0.73;0.73;;;;;;;21.71;77.07;99742.81;5070293;28;20211;-61
2023/07/10 01:52:14;;;;;;;0.63;0.63;;;;;;;21.55;76.90;99716.16;5069080;28;20292;-61
2023/07/10 01:54:42;;;;;;;0.60;0.60;;;;;;;21.61;77.61;99731.41;5070310;28;20200;-61
2023/07/10 01:57:11;;;;;;;0.80;0.80;;;;;;;21.60;77.16;99739.31;5069879;28;20201;-60
2023/07/10 01:59:37;;;;;;;0.50;0.50;;;;;;;21.62;77.08;99733.03;5070317;28;20741;-61
2023/07/10 02:02:05;;;;;;;0.70;0.70;;;;;;;21.66;76.46;99739.72;5070067;28;20212;-61
2023/07/10 02:04:32;;;;;;;0.70;0.70;;;;;;;21.67;76.20;99728.34;5069775;28;20273;-61
2023/07/10 02:06:59;;;;;;;0.50;0.50;;;;;;;21.66;76.31;99733.66;5070188;28;20611;-60
2023/07/10 02:09:28;;;;;;;0.40;0.40;;;;;;;21.66;76.50;99733.66;5069970;28;20221;-61
2023/07/10 02:11:57;;;;;;;0.90;0.90;;;;;;;21.67;76.29;99728.34;5069924;28;20192;-61
2023/07/10 02:14:24;;;;;;;0.60;0.60;;;;;;;21.72;76.39;99735.84;5070072;28;20616;-60
2023/07/10 02:16:51;;;;;;;0.63;0.63;;;;;;;21.65;76.03;99717.16;5069995;28;20675;-61
2023/07/10 02:19:17;;;;;;;0.57;0.57;;;;;;;21.79;76.29;99724.03;5069599;28;20192;-61
2023/07/10 02:21:44;;;;;;;0.60;0.60;;;;;;;21.80;75.85;99728.31;5069811;28;20203;-62
2023/07/10 02:24:11;;;;;;;0.70;0.70;;;;;;;21.77;75.83;99723.31;5070233;28;20199;-61
2023/07/10 02:26:38;;;;;;;0.60;0.60;;;;;;;21.78;75.88;99717.97;5069768;28;20210;-61
2023/07/10 02:29:06;;;;;;;2.10;0.60;;;;;;;21.69;75.64;99708.19;5069923;28;20223;-61
2023/07/10 02:31:33;;;;;;;0.60;0.60;;;;;;;21.77;75.44;99721.53;5069150;28;20627;-62
2023/07/10 02:34:00;;;;;;;0.77;0.77;;;;;;;21.75;75.51;99723.41;5069833;28;20196;-61
2023/07/10 02:36:29;;;;;;;0.70;0.70;;;;;;;21.70;75.93;99720.31;5071512;28;20685;-61
2023/07/10 02:38:56;;;;;;;0.77;0.77;;;;;;;21.51;76.54;99706.88;5073329;28;20211;-61
2023/07/10 02:41:22;;;;;;;0.83;0.83;;;;;;;21.57;76.55;99729.94;5073294;28;20670;-61
2023/07/10 02:43:49;;;;;;;1.13;0.80;;;;;;;21.56;76.52;99730.88;5073003;28;20214;-61
2023/07/10 02:46:17;;;;;;;0.63;0.63;;;;;;;21.50;76.65;99728.69;5072972;28;20206;-61
2023/07/10 02:48:44;;;;;;;0.50;0.50;;;;;;;21.42;76.50;99726.59;5073020;28;20203;-61
2023/07/10 02:51:11;;;;;;;0.57;0.57;;;;;;;21.36;77.17;99727.03;5072776;28;20209;-60
2023/07/10 02:53:38;;;;;;;0.50;0.50;;;;;;;21.34;76.95;99728.09;5073141;28;20201;-60
2023/07/10 02:56:05;;;;;;;0.40;0.40;;;;;;;21.29;76.98;99719.75;5072813;28;20203;-61
2023/07/10 02:58:32;;;;;;;0.70;0.70;;;;;;;21.00;77.42;99687.84;5073510;28;20198;-61
2023/07/10 03:01:00;;;;;;;0.60;0.60;;;;;;;21.21;78.13;99728.09;5072601;28;20675;-61
2023/07/10 03:03:28;;;;;;;0.73;0.73;;;;;;;21.05;78.09;99718.78;5072855;28;20218;-60
2023/07/10 03:05:56;;;;;;;0.60;0.60;;;;;;;21.12;78.46;99738.31;5072680;28;20209;-61
2023/07/10 03:08:23;;;;;;;0.50;0.50;;;;;;;21.13;78.01;99737.41;5073085;28;20669;-62
2023/07/10 03:10:58;;;;;;;0.80;0.80;;;;;;;21.15;78.12;99738.94;5072587;28;20209;-62
2023/07/10 03:13:25;;;;;;;0.67;0.67;;;;;;;21.14;77.61;99731.22;5072452;28;20199;-60
2023/07/10 03:15:59;;;;;;;1.27;0.93;;;;;;;21.26;77.88;99738.22;5072949;28;20204;-62
2023/07/10 03:18:26;;;;;;;0.57;0.57;;;;;;;21.29;77.29;99751.06;5072483;28;20203;-61
2023/07/10 03:20:54;;;;;;;1.40;0.67;;;;;;;21.35;77.65;99755.84;5070705;28;20211;-61
2023/07/10 03:23:21;;;;;;;0.50;0.50;;;;;;;21.36;77.06;99750.50;5071327;28;20223;-61
2023/07/10 03:25:47;;;;;;;0.57;0.57;;;;;;;21.39;76.44;99752.06;5071725;28;20217;-61
2023/07/10 03:28:15;;;;;;;0.50;0.50;;;;;;;21.43;76.46;99753.53;5070220;28;20235;-61
2023/07/10 03:30:42;;;;;;;0.70;0.70;;;;;;;21.47;75.93;99755.00;5072139;28;20207;-64
2023/07/10 03:33:11;;;;;;;0.50;0.50;;;;;;;21.50;76.38;99762.59;5071998;28;20200;-61
2023/07/10 03:35:38;;;;;;;0.50;0.50;;;;;;;21.45;76.22;99765.50;5072057;28;20192;-61
2023/07/10 03:38:06;;;;;;;0.97;0.90;;;;;;;21.36;76.32;99749.66;5071066;28;20671;-61
2023/07/10 03:40:33;;;;;;;0.50;0.50;;;;;;;21.39;76.89;99762.50;5072271;28;20198;-61
2023/07/10 03:43:00;;;;;;;0.50;0.50;;;;;;;21.28;77.38;99749.38;5071261;28;20277;-61
2023/07/10 03:45:27;;;;;;;0.97;0.97;;;;;;;21.36;78.13;99762.72;5071888;28;20202;-61
2023/07/10 03:47:53;;;;;;;0.60;0.60;;;;;;;21.38;77.89;99756.47;5070586;28;20204;-61
2023/07/10 03:50:20;;;;;;;0.50;0.50;;;;;;;21.43;77.98;99766.56;5067162;28;20210;-61
2023/07/10 03:52:47;;;;;;;0.50;0.50;;;;;;;21.45;78.26;99764.72;5071365;28;20258;-60
2023/07/10 03:55:15;;;;;;;0.63;0.63;;;;;;;21.40;77.50;99753.75;5071473;28;20271;-61
2023/07/10 03:57:42;;;;;;;0.60;0.60;;;;;;;21.59;77.73;99775.00;5071539;28;20285;-61
2023/07/10 04:00:09;;;;;;;0.50;0.50;;;;;;;21.67;76.86;99762.28;5071123;28;20658;-62
2023/07/10 04:02:36;;;;;;;0.40;0.40;;;;;;;21.80;75.83;99768.31;5071567;28;20630;-61
2023/07/10 04:05:03;;;;;;;0.70;0.70;;;;;;;21.92;76.91;99772.69;5071393;28;20725;-61
2023/07/10 04:07:30;;;;;;;0.63;0.63;;;;;;;22.02;75.46;99772.88;5067601;28;20690;-61
2023/07/10 04:09:57;;;;;;;0.50;0.50;;;;;;;22.10;75.49;99777.56;5071574;28;20208;-62
2023/07/10 04:12:25;;;;;;;0.80;0.80;;;;;;;22.21;75.28;99785.44;5070690;28;20196;-61
2023/07/10 04:14:51;;;;;;;1.03;1.03;;;;;;;22.27;74.51;99788.44;5070946;28;20200;-61
2023/07/10 04:17:18;;;;;;;0.80;0.67;;;;;;;22.37;74.98;99779.00;5071416;28;20200;-61
2023/07/10 04:19:45;;;;;;;0.73;0.73;;;;;;;22.62;73.29;99792.91;5070636;28;20257;-61
2023/07/10 04:22:12;;;;;;;0.57;0.57;;;;;;;22.76;72.74;99790.13;5068700;28;20673;-61
2023/07/10 04:24:39;;;;;;;0.90;0.90;;;;;;;22.85;72.86;99779.81;5071072;28;20212;-62
2023/07/10 04:27:07;;;;;;;1.00;1.00;;;;;;;23.06;71.91;99794.84;5071168;28;20587;-62
2023/07/10 04:29:35;;;;;;;0.60;0.60;;;;;;;23.20;70.47;99799.88;5070638;28;20754;-61
2023/07/10 04:32:02;;;;;;;0.70;0.70;;;;;;;23.24;71.23;99790.81;5071086;28;20253;-61
2023/07/10 04:34:28;;;;;;;0.73;0.73;;;;;;;23.55;70.89;99803.28;5070299;28;20211;-61
2023/07/10 04:36:56;;;;;;;0.63;0.63;;;;;;;23.67;69.22;99794.47;5068642;28;20212;-61
2023/07/10 04:39:22;;;;;;;0.83;0.83;;;;;;;23.91;68.74;99807.44;5068862;28;20203;-62
2023/07/10 04:41:49;;;;;;;0.60;0.60;;;;;;;24.13;68.18;99801.34;5068049;28;20220;-61
2023/07/10 04:44:16;;;;;;;1.10;0.80;;;;;;;24.31;69.71;99803.34;5068689;28;20216;-61
2023/07/10 04:46:44;;;;;;;0.87;0.87;;;;;;;24.56;67.79;99794.31;5068206;28;20196;-61
2023/07/10 04:49:11;;;;;;;1.63;0.90;;;;;;;24.82;66.51;99800.91;5068927;28;20206;-62
2023/07/10 04:51:37;;;;;;;0.83;0.60;;;;;;;24.96;66.43;99803.22;5068047;28;20626;-62
2023/07/10 04:54:04;;;;;;;0.50;0.50;;;;;;;25.22;66.41;99802.84;5069744;28;20192;-62
2023/07/10 04:56:31;;;;;;;0.50;0.50;;;;;;;25.44;63.43;99805.31;5069175;28;20199;-65
2023/07/10 04:58:59;;;;;;;0.97;0.97;;;;;;;25.56;61.88;99801.66;5069826;28;20204;-61
2023/07/10 05:01:28;;;;;;;0.60;0.60;;;;;;;25.63;62.16;99805.41;5069856;28;20211;-61
2023/07/10 05:03:57;;;;;;;0.60;0.60;;;;;;;25.71;60.43;99797.72;5070230;28;20215;-61
2023/07/10 05:06:24;;;;;;;0.93;0.93;;;;;;;25.73;59.95;99803.69;5069234;28;20256;-62
2023/07/10 05:08:54;;;;;;;0.53;0.53;;;;;;;25.53;59.65;99791.41;5070116;28;20211;-62
2023/07/10 05:11:23;;;;;;;0.50;0.50;;;;;;;25.61;61.26;99804.75;5069272;28;20207;-61
2023/07/10 05:13:50;;;;;;;0.50;0.50;;;;;;;25.71;60.76;99810.88;5068440;28;20196;-60
2023/07/10 05:16:17;;;;;;;0.67;0.67;;;;;;;25.91;59.61;99807.31;5068818;28;20204;-61
2023/07/10 05:18:44;;;;;;;0.70;0.70;;;;;;;26.07;58.61;99812.09;5068662;28;20257;-61
2023/07/10 05:21:12;;;;;;;0.60;0.60;;;;;;;26.17;58.98;99802.47;5069162;28;20264;-61
2023/07/10 05:23:39;;;;;;;0.90;0.90;;;;;;;26.01;55.83;99797.69;5067980;28;20576;-62
2023/07/10 05:26:09;;;;;;;0.53;0.53;;;;;;;26.06;58.37;99811.25;5069473;28;20619;-61
2023/07/10 05:28:36;;;;;;;0.63;0.63;;;;;;;26.07;56.35;99810.28;5069913;28;20231;-61
2023/07/10 05:31:04;;;;;;;0.83;0.83;;;;;;;26.07;56.32;99809.47;5067778;28;20207;-60
2023/07/10 05:33:32;;;;;;;0.70;0.70;;;;;;;26.11;56.24;99806.41;5068133;28;20557;-60
2023/07/10 05:36:00;;;;;;;0.90;0.87;;;;;;;26.17;56.34;99809.53;5066777;28;20200;-61
2023/07/10 05:38:31;;;;;;;0.60;0.60;;;;;;;26.31;56.45;99812.56;5069129;28;20604;-60
2023/07/10 05:40:59;;;;;;;0.53;0.53;;;;;;;26.31;57.96;99801.22;5069250;28;20672;-60
2023/07/10 05:43:26;;;;;;;0.80;0.80;;;;;;;26.39;55.21;99796.97;5068156;28;20223;-61
2023/07/10 05:45:54;;;;;;;0.97;0.70;;;;;;;26.71;55.02;99801.13;5070180;28;20748;-64
2023/07/10 05:48:21;;;;;;;0.50;0.50;;;;;;;27.00;54.37;99813.31;5069947;28;20227;-61
2023/07/10 05:50:49;;;;;;;0.70;0.70;;;;;;;27.26;54.38;99810.09;5069751;28;20257;-61
2023/07/10 05:53:17;;;;;;;0.70;0.70;;;;;;;27.46;54.77;99815.22;5069435;28;20619;-61
2023/07/10 05:55:46;;;;;;;0.63;0.63;;;;;;;27.79;53.65;99816.44;5068865;28;20200;-61
2023/07/10 05:58:13;;;;;;;0.53;0.53;;;;;;;27.84;51.90;99824.75;5068337;28;20196;-60
2023/07/10 06:00:41;;;;;;;0.83;0.83;;;;;;;27.75;51.36;99817.72;5069266;28;20694;-61
2023/07/10 06:03:07;;;;;;;0.70;0.53;;;;;;;27.78;53.38;99817.44;5067782;28;20227;-62
2023/07/10 06:05:34;;;;;;;0.70;0.70;;;;;;;27.81;50.96;99814.50;5069343;28;20216;-60
2023/07/10 06:08:01;;;;;;;0.80;0.80;;;;;;;27.98;54.80;99813.72;5069217;28;20204;-61
2023/07/10 06:10:28;;;;;;;0.63;0.63;;;;;;;28.35;54.56;99803.13;5069637;28;20675;-61
2023/07/10 06:12:56;;;;;;;0.40;0.40;;;;;;;28.67;51.10;99803.47;5072305;28;20204;-60
2023/07/10 06:15:23;;;;;;;5.83;0.70;;;;;;;28.86;49.11;99807.72;5072451;28;20207;-61
2023/07/10 06:17:50;;;;;;;0.70;0.70;;;;;;;29.06;49.64;99803.94;5073567;28;20222;-61
2023/07/10 06:20:17;;;;;;;0.60;0.53;;;;;;;29.28;49.87;99807.91;5073378;28;20199;-61
2023/07/10 06:22:44;;;;;;;0.50;0.50;;;;;;;29.40;46.79;99804.03;5073277;28;20203;-60
2023/07/10 06:25:11;;;;;;;0.63;0.63;;;;;;;29.15;47.02;99808.28;5072566;28;20208;-61
2023/07/10 06:27:38;;;;;;;0.77;0.70;;;;;;;29.01;47.05;99811.50;5072632;28;20205;-60
2023/07/10 06:30:07;;;;;;;1.07;0.50;;;;;;;28.94;49.38;99806.97;5071696;28;20208;-60
2023/07/10 06:32:36;;;;;;;0.70;0.70;;;;;;;29.10;48.58;99800.00;5071934;28;20204;-61
2023/07/10 06:35:03;;;;;;;0.73;0.73;;;;;;;29.24;47.81;99805.72;5071159;28;20201;-60
2023/07/10 06:37:30;;;;;;;0.47;0.47;;;;;;;29.44;48.08;99808.00;5072545;28;20204;-61
2023/07/10 06:40:08;;;;;;;0.70;0.70;;;;;;;29.48;46.49;99803.22;5072282;28;20285;-60
2023/07/10 06:42:35;;;;;;;1.00;0.57;;;;;;;29.46;48.03;99805.22;5071699;28;20216;-61
2023/07/10 06:45:02;;;;;;;0.65;0.65;;;;;;;29.62;47.66;99800.00;5073456;28;20699;-61
2023/07/10 06:47:31;;;;;;;5.10;0.60;;;;;;;29.62;46.45;99800.00;5070352;28;20200;-60
2023/07/10 06:49:58;;;;;;;0.60;0.60;;;;;;;29.69;49.60;99803.69;5071904;28;20200;-61
2023/07/10 06:52:25;;;;;;;0.63;0.63;;;;;;;29.82;47.16;99801.44;5070041;28;20212;-61
2023/07/10 06:54:52;;;;;;;2.92;0.50;;;;;;;29.87;46.07;99787.75;5071911;28;20207;-62
2023/07/10 06:57:19;;;;;;;0.50;0.50;;;;;;;30.04;47.71;99798.25;5071925;28;20203;-60
2023/07/10 06:59:46;;;;;;;0.52;0.52;;;;;;;30.14;45.64;99793.66;5069323;28;20211;-59
2023/07/10 07:02:13;;;;;;;0.77;0.75;;;;;;;30.08;45.22;99783.69;5071235;28;20211;-60
2023/07/10 07:04:43;;;;;;;0.80;0.80;;;;;;;30.47;45.84;99791.09;5070750;28;20265;-60
2023/07/10 07:07:10;;;;;;;1.05;0.80;;;;;;;30.49;44.46;99789.09;5073148;28;20227;-61
2023/07/10 07:09:36;;;;;;;0.60;0.60;;;;;;;30.54;45.32;99792.06;5072484;28;20238;-62
2023/07/10 07:12:03;;;;;;;0.88;0.88;;;;;;;30.57;43.80;99797.03;5076035;28;20245;-62
2023/07/10 07:14:30;;;;;;;3.40;2.42;;;;;;;30.70;47.24;99803.50;5071937;28;20192;-61
2023/07/10 07:16:57;;;;;;;4.38;1.27;;;;;;;30.94;44.21;99794.72;5071640;28;20211;-61
2023/07/10 07:19:24;;;;;;;0.40;0.40;;;;;;;31.07;43.34;99789.78;5071776;28;20672;-60
2023/07/10 07:21:52;;;;;;;25.15;6.43;;;;;;;31.06;43.38;99793.41;5072440;28;20664;-61
2023/07/10 07:24:19;;;;;;;9.35;4.15;;;;;;;31.21;44.62;99791.72;5070308;28;20637;-61
2023/07/10 07:26:45;;;;;;;7.90;4.18;;;;;;;31.42;43.36;99798.31;5072408;28;20192;-63
2023/07/10 07:29:12;;;;;;;8.63;5.45;;;;;;;31.47;41.91;99769.50;5071289;28;22320;-61
2023/07/10 07:31:39;;;;;;;0.75;0.75;;;;;;;31.56;43.58;99795.00;5076890;28;20203;-61
2023/07/10 07:34:06;;;;;;;2.33;1.20;;;;;;;31.74;43.42;99790.28;5072352;28;20189;-61
2023/07/10 07:36:34;;;;;;;1.08;0.98;;;;;;;31.76;42.63;99790.97;5072134;28;20204;-60
2023/07/10 07:39:03;;;;;;;0.50;0.50;;;;;;;31.85;42.07;99774.00;5071792;28;20207;-62
2023/07/10 07:41:31;;;;;;;0.50;0.50;;;;;;;31.88;42.47;99778.13;5072261;28;20681;-61
2023/07/10 07:43:58;;;;;;;1.13;0.90;;;;;;;32.09;41.02;99789.81;5071995;28;20212;-61
2023/07/10 07:46:25;;;;;;;0.60;0.60;;;;;;;32.37;41.63;99776.88;5074534;28;20569;-61
2023/07/10 07:48:52;;;;;;;0.65;0.63;;;;;;;32.56;42.17;99773.75;5075202;28;20260;-61
2023/07/10 07:51:19;;;;;;;0.80;0.80;;;;;;;32.62;43.10;99764.28;5071635;28;20663;-60
2023/07/10 07:53:46;;;;;;;0.60;0.60;;;;;;;32.79;40.96;99760.47;5071886;28;20192;-61
2023/07/10 07:56:14;;;;;;;0.63;0.57;;;;;;;32.70;39.85;99756.22;5071245;28;20249;-60
2023/07/10 07:58:42;;;;;;;0.50;0.50;;;;;;;32.89;40.97;99763.72;5072253;28;20619;-61
2023/07/10 08:01:09;;;;;;;0.60;0.55;;;;;;;32.83;39.85;99761.75;5069815;28;20215;-62
2023/07/10 08:03:36;;;;;;;1.08;0.75;;;;;;;32.90;41.92;99760.03;5071761;28;20212;-62
2023/07/10 08:06:04;;;;;;;0.60;0.60;;;;;;;33.01;40.24;99762.25;5071397;28;20634;-61
2023/07/10 08:08:31;;;;;;;1.00;0.95;;;;;;;33.15;39.30;99760.66;5070870;28;21886;-62
2023/07/10 08:10:57;;;;;;;0.55;0.55;;;;;;;33.15;38.36;99768.63;5071662;28;20280;-62
2023/07/10 08:13:25;;;;;;;0.65;0.65;;;;;;;33.20;37.93;99756.44;5071084;28;20196;-61
2023/07/10 08:15:52;;;;;;;0.52;0.52;;;;;;;33.33;39.85;99755.81;5072002;28;20253;-62
2023/07/10 08:18:19;;;;;;;0.50;0.50;;;;;;;33.19;37.40;99749.47;5070475;28;20204;-62
2023/07/10 08:20:46;;;;;;;0.82;0.55;;;;;;;33.38;38.21;99747.28;5070061;28;20213;-63
2023/07/10 08:23:12;;;;;;;0.45;0.45;;;;;;;33.44;38.24;99746.53;5067945;28;20207;-62
2023/07/10 08:25:39;;;;;;;0.60;0.60;;;;;;;33.41;39.76;99742.41;5071110;28;20228;-62
2023/07/10 08:28:06;;;;;;;0.60;0.60;;;;;;;33.45;37.76;99748.19;5069968;28;20288;-61
2023/07/10 08:30:34;;;;;;;1.10;0.80;;;;;;;33.49;35.25;99749.47;5068709;28;20200;-62
2023/07/10 08:33:01;;;;;;;0.50;0.50;;;;;;;33.62;34.24;99745.19;5070108;28;20204;-62
2023/07/10 08:35:28;;;;;;;5.57;0.52;;;;;;;33.44;37.85;99741.22;5069937;28;20196;-61
2023/07/10 08:37:56;;;;;;;0.60;0.60;;;;;;;33.47;36.57;99736.38;5070136;28;20257;-62
2023/07/10 08:40:31;;;;;;;0.85;0.85;;;;;;;33.46;34.74;99733.88;5069320;28;20273;-61
2023/07/10 08:43:02;;;;;;;0.68;0.68;;;;;;;33.46;35.05;99723.25;5070816;28;20295;-61
2023/07/10 08:45:36;;;;;;;0.50;0.50;;;;;;;33.55;36.19;99732.78;5068622;28;20595;-61
2023/07/10 08:48:22;;;;;;;0.40;0.40;;;;;;;33.45;38.66;99738.38;5068138;28;20200;-61
2023/07/10 08:50:50;;;;;;;0.43;0.43;;;;;;;33.52;34.45;99731.31;5069731;28;20217;-62
2023/07/10 08:53:25;;;;;;;0.35;0.35;;;;;;;33.50;34.11;99719.22;5068970;28;20208;-60
2023/07/10 08:56:00;;;;;;;0.60;0.60;;;;;;;33.55;34.71;99727.44;5068705;28;20317;-61
2023/07/10 08:58:31;;;;;;;0.50;0.50;;;;;;;33.41;36.38;99730.97;5068746;28;20207;-61
2023/07/10 09:01:03;;;;;;;0.40;0.40;;;;;;;33.58;36.11;99722.59;5068650;28;20211;-62
2023/07/10 09:03:40;;;;;;;0.30;0.30;;;;;;;33.82;33.77;99729.47;5067564;28;20203;-62
2023/07/10 09:06:20;;;;;;;0.50;0.50;;;;;;;33.88;33.37;99726.03;5069010;28;20214;-62
2023/07/10 09:08:50;;;;;;;0.47;0.43;;;;;;;33.95;32.83;99724.28;5068136;28;20607;-62
2023/07/10 09:11:18;;;;;;;1.00;0.47;;;;;;;33.89;34.19;99719.72;5068495;28;20196;-62
2023/07/10 09:13:48;;;;;;;1.83;0.50;;;;;;;33.53;32.36;99724.16;5067421;28;20629;-62
2023/07/10 09:16:18;;;;;;;0.30;0.30;;;;;;;33.67;33.41;99726.00;5068298;28;20202;-62
2023/07/10 09:18:52;;;;;;;0.40;0.40;;;;;;;33.93;31.52;99736.94;5069445;28;20207;-62
2023/07/10 09:21:21;;;;;;;0.40;0.40;;;;;;;34.20;31.90;99728.25;5067485;28;20435;-62
2023/07/10 09:23:48;;;;;;;0.30;0.30;;;;;;;34.02;32.88;99724.34;5065805;28;20215;-62
2023/07/10 09:26:18;;;;;;;0.40;0.40;;;;;;;33.89;32.41;99718.91;5068596;28;20200;-62
2023/07/10 09:28:58;;;;;;;0.35;0.35;;;;;;;34.17;33.07;99717.16;5069751;28;20242;-63
2023/07/10 09:31:40;;;;;;;0.70;0.70;;;;;;;34.40;31.20;99724.97;5069231;28;20269;-63
2023/07/10 09:34:11;;;;;;;0.50;0.50;;;;;;;34.66;32.23;99711.91;5069522;28;20207;-62
2023/07/10 09:36:38;;;;;;;1.13;0.52;;;;;;;34.96;34.16;99713.31;5067148;28;20245;-63
2023/07/10 09:39:05;;;;;;;0.40;0.40;;;;;;;35.20;31.91;99715.56;5067765;28;20192;-64
2023/07/10 09:41:33;;;;;;;0.40;0.40;;;;;;;35.37;31.58;99704.56;5070477;28;20579;-65
2023/07/10 09:44:02;;;;;;;0.50;0.50;;;;;;;35.44;32.95;99694.75;5069593;28;20196;-64
2023/07/10 09:46:33;;;;;;;0.50;0.50;;;;;;;35.54;30.43;99716.56;5072123;28;20203;-64
2023/07/10 09:49:02;;;;;;;0.68;0.60;;;;;;;35.33;29.81;99713.97;5072579;28;20212;-63
2023/07/10 09:51:30;;;;;;;0.60;0.60;;;;;;;35.48;30.05;99712.81;5072185;28;20261;-64
2023/07/10 09:54:04;;;;;;;0.52;0.52;;;;;;;35.46;29.98;99709.53;5073237;28;20207;-64
2023/07/10 09:56:35;;;;;;;0.47;0.47;;;;;;;35.63;29.27;99712.72;5072881;28;20586;-64
2023/07/10 09:59:03;;;;;;;0.50;0.50;;;;;;;35.82;30.80;99709.28;5072657;28;20257;-64
2023/07/10 10:01:32;;;;;;;0.50;0.50;;;;;;;35.89;30.79;99704.78;5072357;28;20250;-63
2023/07/10 10:04:02;;;;;;;0.50;0.50;;;;;;;35.90;30.80;99700.28;5070473;28;20196;-65
2023/07/10 10:06:31;;;;;;;0.38;0.38;;;;;;;35.78;30.37;99679.50;5073356;28;20253;-63
2023/07/10 10:08:58;;;;;;;0.65;0.60;;;;;;;35.87;31.14;99679.34;5072913;28;20203;-64
2023/07/10 10:11:37;;;;;;;0.52;0.52;;;;;;;35.92;31.04;99688.38;5069564;28;20668;-63
2023/07/10 10:14:11;;;;;;;0.52;0.50;;;;;;;36.16;30.72;99682.47;5072654;28;20200;-63
2023/07/10 10:16:43;;;;;;;0.43;0.43;;;;;;;36.46;30.86;99679.41;5071498;28;20689;-63
2023/07/10 10:19:15;;;;;;;0.30;0.30;;;;;;;36.59;29.60;99680.25;5072649;28;20694;-63
2023/07/10 10:21:42;;;;;;;0.30;0.30;;;;;;;36.71;27.95;99677.75;5070954;28;20208;-63
2023/07/10 10:24:11;;;;;;;0.57;0.57;;;;;;;36.90;28.08;99671.56;5072862;28;20269;-64
2023/07/10 10:26:59;;;;;;;0.55;0.55;;;;;;;36.75;28.02;99669.13;5073083;28;20211;-63
2023/07/10 10:29:48;;;;;;;0.47;0.47;;;;;;;36.74;29.33;99666.66;5072366;28;20227;-63
2023/07/10 10:32:26;;;;;;;0.50;0.50;;;;;;;36.76;28.01;99669.97;5071765;28;20200;-63
2023/07/10 10:34:59;;;;;;;0.40;0.40;;;;;;;36.23;30.64;99663.78;5070722;28;20687;-63
2023/07/10 10:37:40;;;;;;;0.40;0.40;;;;;;;36.11;33.27;99655.59;5068708;28;20203;-63
2023/07/10 10:40:21;;;;;;;0.47;0.47;;;;;;;35.99;32.69;99651.84;5067467;28;20228;-63
2023/07/10 10:42:52;;;;;;;0.82;0.60;;;;;;;36.23;31.10;99637.09;5070074;28;20200;-62
2023/07/10 10:45:28;;;;;;;0.70;0.70;;;;;;;36.21;30.45;99631.97;5071458;28;20238;-63
2023/07/10 10:48:11;;;;;;;0.40;0.40;;;;;;;36.22;30.23;99651.50;5069951;28;20199;-63
2023/07/10 10:50:49;;;;;;;0.40;0.40;;;;;;;36.20;29.52;99649.00;5069662;28;20204;-62
2023/07/10 10:53:40;;;;;;;0.50;0.50;;;;;;;36.28;28.86;99632.81;5067923;28;20273;-63
2023/07/10 10:56:24;;;;;;;0.50;0.50;;;;;;;36.22;29.90;99636.25;5065998;28;20203;-63
2023/07/10 10:59:01;;;;;;;0.43;0.40;;;;;;;36.08;30.30;99615.94;5068185;28;20219;-63
2023/07/10 11:01:42;;;;;;;0.50;0.50;;;;;;;36.37;29.85;99629.91;5071726;28;20204;-62
2023/07/10 11:04:26;;;;;;;1.38;0.50;;;;;;;36.56;29.50;99615.72;5070875;28;20647;-64
2023/07/10 11:06:58;;;;;;;0.38;0.32;;;;;;;36.67;30.62;99637.31;5067649;28;20227;-63
2023/07/10 11:09:30;;;;;;;0.55;0.55;;;;;;;36.67;29.09;99631.13;5067493;28;20224;-63
2023/07/10 11:11:59;;;;;;;0.60;0.60;;;;;;;36.82;29.56;99637.06;5065767;28;20714;-63
2023/07/10 11:14:26;;;;;;;1.75;0.75;;;;;;;36.74;30.68;99629.25;5066596;28;20204;-63
2023/07/10 11:16:54;;;;;;;0.40;0.40;;;;;;;36.57;27.26;99623.56;5065532;28;20196;-63
2023/07/10 11:19:27;;;;;;;0.50;0.50;;;;;;;36.42;28.14;99627.41;5067960;28;20580;-62
2023/07/10 11:21:54;;;;;;;0.50;0.50;;;;;;;36.31;29.96;99613.69;5070971;28;20207;-64
2023/07/10 11:24:35;;;;;;;0.98;0.55;;;;;;;36.28;29.77;99611.44;5067596;28;20200;-63
2023/07/10 11:27:11;;;;;;;0.55;0.55;;;;;;;36.22;29.85;99614.09;5070137;28;20200;-63
2023/07/10 11:29:42;;;;;;;0.60;0.60;;;;;;;36.24;29.09;99601.38;5066075;28;20250;-63
2023/07/10 11:32:17;;;;;;;0.40;0.40;;;;;;;36.39;28.65;99607.28;5066318;28;20732;-64
2023/07/10 11:34:57;;;;;;;0.57;0.57;;;;;;;36.32;29.45;99601.97;5071589;28;20242;-63
2023/07/10 11:38:18;;;;;;;0.35;0.35;;;;;;;36.13;30.56;99604.63;5070766;28;20192;-63
2023/07/10 11:40:51;;;;;;;0.70;0.70;;;;;;;36.28;30.21;99587.41;5071885;28;20291;-63
2023/07/10 11:43:53;;;;;;;2.00;0.50;;;;;;;36.39;30.81;99593.94;5069511;28;20211;-63
2023/07/10 11:46:29;;;;;;;0.65;0.65;;;;;;;35.96;29.77;99582.88;5025675;28;20244;-63